Eagle Creek, Indiana
Current Conditions -  °F | °C
As of 7:54 PM on Saturday 22 Nov 2014 (Local Time) from KIND Reporting Station
Overcast Overcast  
Wind Chill: 54°   Ceiling: 4300
Heat Index: 54°   Visibility: 10mi
Dew Point: 39°   Wind: 13mph
Humidity: 57%   Direction: 180°S
Pressure: 30"   Gusts: NA
Location:  39.7691°N, 86.1583°W
Report Text: KIND 230054Z 18011KT 10SM OVC043 12/04 A3000 RMK AO2 SLP163 T01220039
Loading
Personal Weather Stations






























Interactive Weather Map New forecast layout! Learn more

10-Day Weather Forecast

Advertisements
Track Severe Weather on mobile